Terminal Aerodrome Forecast
Issued by NWS

Current Version | Previous Version | Text Only | Print | Product List | Glossary Off
Versions: 1 2 3 4 5 6 7 8 9 10 11 12 13 14 15 16 17 18 19 20 21 22 23 24 25 26 27 28 29 30 31

666
FTUS41 KRLX 280557 CCA
TAFCKB
TAF COR
KCKB 280557Z 2806/2906 29004KT P6SM SCT050
     FM280900 VRB03KT 3SM BR SCT001
     FM281300 VRB05KT P6SM FEW200
     FM282300 17004KT P6SM BKN150=

USA.gov is the U.S. government's official web portal to all federal, state and local government web resources and services.